Time;durP1;ratioP1;P1;durP2;ratioP2;P2;SDS_P1;SDS_P2;PMS_P1;PMS_P2;Temp;Humidity;BMP_temperature;BMP_pressure;BME280_temperature;BME280_humidity;BME280_pressure;Samples;Min_cycle;Max_cycle;Signal;HPM_P1;HPM_P2
2023/12/27 00:02:14;;;;;;;2.60;1.50;;;12.90;65.60;11.80;97005.00;;;;4976794;28;20199;-90
2023/12/27 00:04:41;;;;;;;2.60;1.60;;;12.90;65.70;11.70;97010.00;;;;4977736;28;20207;-90
2023/12/27 00:07:08;;;;;;;1.60;1.20;;;12.80;65.70;11.70;97005.00;;;;4978189;28;20609;-90
2023/12/27 00:09:34;;;;;;;1.70;1.23;;;12.80;65.80;11.70;97009.00;;;;4972267;28;20225;-89
2023/12/27 00:12:02;;;;;;;2.50;1.30;;;12.80;65.80;11.70;97004.00;;;;4977124;28;20199;-90
2023/12/27 00:14:31;;;;;;;1.33;1.23;;;12.80;65.90;11.70;97005.00;;;;4977524;28;20659;-92
2023/12/27 00:16:58;;;;;;;1.80;1.33;;;12.80;65.90;11.70;96997.00;;;;4974865;28;20214;-90
2023/12/27 00:19:25;;;;;;;3.17;1.27;;;12.80;66.00;11.60;96999.00;;;;4970588;28;20235;-91
2023/12/27 00:21:52;;;;;;;2.50;1.40;;;12.70;66.00;11.60;96986.00;;;;4981127;28;20198;-90
2023/12/27 00:24:19;;;;;;;2.80;1.27;;;12.70;66.10;11.60;96996.00;;;;4972911;28;20203;-91
2023/12/27 00:26:47;;;;;;;3.00;1.23;;;12.70;66.20;11.60;97002.00;;;;4989692;28;20246;-91
2023/12/27 00:29:14;;;;;;;2.20;1.20;;;12.70;66.30;11.60;97004.00;;;;4979534;28;20243;-90
2023/12/27 00:31:42;;;;;;;1.93;1.20;;;12.70;66.40;11.60;97009.00;;;;4990944;28;20199;-92
2023/12/27 00:34:09;;;;;;;4.03;1.40;;;12.70;66.40;11.60;97008.00;;;;4983363;28;20269;-91
2023/12/27 00:36:37;;;;;;;2.27;1.17;;;12.70;66.50;11.60;97003.00;;;;4967586;28;20524;-90
2023/12/27 00:39:08;;;;;;;2.03;1.30;;;12.70;66.50;11.60;97007.00;;;;4982490;28;20225;-89
2023/12/27 00:41:35;;;;;;;4.50;1.77;;;12.70;66.60;11.60;97000.00;;;;4971787;28;20750;-90
2023/12/27 00:44:05;;;;;;;2.73;1.83;;;12.70;66.70;11.60;97014.00;;;;4984807;28;20215;-91
2023/12/27 00:46:32;;;;;;;3.47;1.30;;;12.70;66.70;11.60;97006.00;;;;4990330;28;20254;-91
2023/12/27 00:49:03;;;;;;;1.63;1.40;;;12.60;66.60;11.60;97012.00;;;;4974203;28;20249;-90
2023/12/27 00:51:33;;;;;;;2.13;1.40;;;12.70;66.70;11.60;97011.00;;;;4980576;28;20661;-90
2023/12/27 00:54:02;;;;;;;2.90;1.60;;;12.70;66.60;11.60;97019.00;;;;4972166;28;20250;-91
2023/12/27 00:56:29;;;;;;;4.60;1.20;;;12.70;66.70;11.60;97025.00;;;;4977515;28;20741;-91
2023/12/27 00:58:57;;;;;;;3.03;1.30;;;12.70;66.70;11.60;97020.00;;;;4971874;28;20227;-89
2023/12/27 01:01:24;;;;;;;1.83;1.73;;;12.70;66.70;11.60;97010.00;;;;4976874;28;20230;-91
2023/12/27 01:03:51;;;;;;;2.17;1.20;;;12.70;66.70;11.60;97012.00;;;;4975919;28;20227;-91
2023/12/27 01:06:20;;;;;;;2.73;1.40;;;12.70;66.70;11.60;97017.00;;;;4974351;28;20227;-90
2023/12/27 01:08:49;;;;;;;2.03;1.50;;;12.70;66.70;11.60;97011.00;;;;4979592;28;20226;-91
2023/12/27 01:11:17;;;;;;;3.60;1.60;;;12.70;66.90;11.60;97013.00;;;;4976565;28;20191;-91
2023/12/27 01:13:44;;;;;;;3.30;1.50;;;12.70;67.00;11.60;97013.00;;;;4983105;28;20207;-91
2023/12/27 01:16:11;;;;;;;2.17;1.40;;;12.70;67.10;11.60;97029.00;;;;4975721;28;20255;-92
2023/12/27 01:18:41;;;;;;;2.63;1.43;;;12.70;67.10;11.60;97023.00;;;;4967690;28;20227;-92
2023/12/27 01:21:13;;;;;;;3.07;1.53;;;12.70;67.00;11.60;97025.00;;;;4991786;28;20203;-90
2023/12/27 01:23:42;;;;;;;1.90;1.20;;;12.70;67.00;11.60;97030.00;;;;4976694;28;20689;-90
2023/12/27 01:26:10;;;;;;;1.90;1.17;;;12.70;67.10;11.60;97036.00;;;;4982948;28;20306;-90
2023/12/27 01:28:37;;;;;;;2.60;1.20;;;12.70;67.20;11.60;97034.00;;;;4977566;28;20194;-92
2023/12/27 01:31:04;;;;;;;3.20;1.10;;;12.70;67.20;11.70;97039.00;;;;4978148;28;20230;-91
2023/12/27 01:33:32;;;;;;;2.93;1.40;;;12.70;67.20;11.70;97048.00;;;;4974456;28;20223;-92
2023/12/27 01:36:07;;;;;;;5.03;1.10;;;12.70;67.20;11.70;97048.00;;;;4968486;28;20276;-91
2023/12/27 01:38:34;;;;;;;1.67;1.40;;;12.80;67.10;11.70;97046.00;;;;4991394;28;20553;-91
2023/12/27 01:41:06;;;;;;;3.50;1.43;;;12.80;67.20;11.70;97047.00;;;;4974292;28;20227;-92
2023/12/27 01:43:33;;;;;;;2.60;1.50;;;12.80;67.10;11.70;97044.00;;;;4974263;28;20188;-91
2023/12/27 01:46:00;;;;;;;1.43;1.10;;;12.80;67.20;11.70;97043.00;;;;4975523;28;20215;-92
2023/12/27 01:48:27;;;;;;;2.80;1.20;;;12.80;67.10;11.70;97046.00;;;;4976174;28;20286;-92
2023/12/27 01:50:56;;;;;;;1.97;1.33;;;12.80;67.20;11.70;97037.00;;;;4984763;28;20204;-93
2023/12/27 01:53:26;;;;;;;1.20;1.10;;;12.80;67.30;11.70;97045.00;;;;4977752;28;20195;-93
2023/12/27 01:55:55;;;;;;;1.40;1.30;;;12.80;67.10;11.70;97044.00;;;;4981867;28;20765;-92
2023/12/27 01:58:24;;;;;;;2.37;1.20;;;12.80;67.20;11.70;97042.00;;;;4977335;28;20262;-92
2023/12/27 02:00:53;;;;;;;2.13;1.37;;;12.80;67.20;11.70;97032.00;;;;4984458;28;20619;-87
2023/12/27 02:03:21;;;;;;;1.47;1.10;;;12.90;67.20;11.80;97039.00;;;;4976070;28;20212;-87
2023/12/27 02:05:51;;;;;;;1.70;1.20;;;12.90;67.20;11.80;97040.00;;;;4975626;28;20379;-87
2023/12/27 02:08:20;;;;;;;3.17;1.50;;;12.90;67.10;11.80;97030.00;;;;4975871;28;20281;-88
2023/12/27 02:10:47;;;;;;;2.73;1.20;;;12.90;67.00;11.80;97035.00;;;;4975567;28;20230;-88
2023/12/27 02:13:14;;;;;;;3.10;1.23;;;12.90;67.00;11.80;97033.00;;;;4975717;28;20246;-88
2023/12/27 02:15:43;;;;;;;2.13;1.10;;;12.90;67.00;11.80;97031.00;;;;4975141;28;20246;-88
2023/12/27 02:18:11;;;;;;;2.87;1.67;;;12.90;67.00;11.80;97037.00;;;;4974836;28;20199;-88
2023/12/27 02:20:40;;;;;;;2.17;1.50;;;12.90;66.90;11.70;97030.00;;;;4975199;28;20245;-87
2023/12/27 02:23:12;;;;;;;2.43;1.37;;;12.90;67.00;11.70;97034.00;;;;4974271;28;20290;-88
2023/12/27 02:25:43;;;;;;;2.77;1.60;;;12.80;67.00;11.70;97028.00;;;;4973975;28;20274;-87
2023/12/27 02:28:11;;;;;;;1.67;1.43;;;12.80;67.00;11.70;97018.00;;;;4972873;28;20200;-88
2023/12/27 02:30:38;;;;;;;1.47;1.37;;;12.80;67.00;11.70;97018.00;;;;4973030;28;20218;-88
2023/12/27 02:33:05;;;;;;;3.73;1.70;;;12.80;67.00;11.70;97016.00;;;;4972952;28;20198;-88
2023/12/27 02:35:32;;;;;;;1.70;1.20;;;12.80;67.00;11.70;97001.00;;;;4972684;28;20227;-88
2023/12/27 02:38:00;;;;;;;1.90;1.20;;;12.80;67.00;11.70;97011.00;;;;4972588;28;20668;-87
2023/12/27 02:40:27;;;;;;;2.40;1.20;;;12.80;67.00;11.70;97007.00;;;;4972629;28;20238;-88
2023/12/27 02:42:55;;;;;;;2.93;1.40;;;12.80;67.00;11.70;96993.00;;;;4974482;28;20266;-88
2023/12/27 02:45:23;;;;;;;3.73;1.70;;;12.80;67.00;11.70;97000.00;;;;4973962;28;20235;-88
2023/12/27 02:47:50;;;;;;;2.43;1.30;;;12.80;67.10;11.70;96999.00;;;;4974046;28;20241;-88
2023/12/27 02:50:17;;;;;;;1.57;1.30;;;12.80;67.30;11.70;96996.00;;;;4974230;28;20226;-88
2023/12/27 02:52:44;;;;;;;3.87;1.40;;;12.80;67.50;11.70;96999.00;;;;4974459;28;20199;-88
2023/12/27 02:55:12;;;;;;;2.40;1.30;;;12.80;67.60;11.70;96990.00;;;;4973843;28;20234;-88
2023/12/27 02:57:39;;;;;;;1.80;1.37;;;12.90;67.60;11.70;96979.00;;;;4974201;28;20657;-88
2023/12/27 03:00:09;;;;;;;2.53;1.23;;;12.80;67.40;11.70;96998.00;;;;4974328;28;20203;-88
2023/12/27 03:02:36;;;;;;;3.67;1.50;;;12.90;67.20;11.70;96993.00;;;;4974509;28;20207;-88
2023/12/27 03:05:04;;;;;;;2.40;1.60;;;12.90;67.40;11.70;96996.00;;;;4974234;28;20270;-88
2023/12/27 03:07:31;;;;;;;3.83;1.50;;;12.90;67.60;11.70;96993.00;;;;4974526;28;20649;-88
2023/12/27 03:09:58;;;;;;;3.87;1.43;;;12.90;67.60;11.70;96986.00;;;;4973928;28;20254;-88
2023/12/27 03:12:28;;;;;;;2.10;1.20;;;12.90;67.70;11.70;96983.00;;;;4974209;28;20199;-88
2023/12/27 03:14:55;;;;;;;1.93;1.30;;;12.90;67.80;11.70;96976.00;;;;4975172;28;20210;-88
2023/12/27 03:17:24;;;;;;;2.73;1.30;;;12.90;67.60;11.70;96975.00;;;;4977526;28;20278;-88
2023/12/27 03:19:54;;;;;;;1.30;1.10;;;12.90;67.50;11.70;96972.00;;;;4977462;28;20203;-88
2023/12/27 03:22:21;;;;;;;2.33;0.90;;;12.90;67.60;11.70;96978.00;;;;4976605;28;20202;-88
2023/12/27 03:24:48;;;;;;;1.50;1.20;;;12.90;67.50;11.70;96971.00;;;;4975439;28;20203;-88
2023/12/27 03:27:16;;;;;;;3.70;1.50;;;12.90;67.50;11.70;96968.00;;;;4976154;28;20237;-88
2023/12/27 03:29:52;;;;;;;1.57;1.10;;;12.90;67.40;11.70;96966.00;;;;4976560;28;20223;-87
2023/12/27 03:32:19;;;;;;;1.93;0.90;;;12.90;67.10;11.70;96968.00;;;;4976194;28;20616;-87
2023/12/27 03:34:47;;;;;;;3.00;1.20;;;12.90;67.30;11.70;96969.00;;;;4976347;28;20203;-87
2023/12/27 03:37:16;;;;;;;1.40;1.30;;;12.90;67.40;11.70;96978.00;;;;4977533;28;20616;-87
2023/12/27 03:39:43;;;;;;;1.37;1.17;;;12.80;67.40;11.70;96968.00;;;;4977690;28;20234;-87
2023/12/27 03:42:12;;;;;;;2.93;1.40;;;12.80;67.40;11.70;96972.00;;;;4977121;28;20706;-87
2023/12/27 03:44:40;;;;;;;5.33;1.43;;;12.90;67.40;11.70;96984.00;;;;4977568;28;20210;-87
2023/12/27 03:47:09;;;;;;;2.03;1.33;;;12.90;67.60;11.80;96974.00;;;;4977272;28;20231;-87
2023/12/27 03:49:36;;;;;;;1.40;1.10;;;12.90;67.70;11.70;96980.00;;;;4976863;28;20235;-89
2023/12/27 03:52:06;;;;;;;2.77;1.20;;;12.90;67.70;11.80;96983.00;;;;4977420;28;20737;-88
2023/12/27 03:54:33;;;;;;;1.37;1.10;;;12.90;67.70;11.80;96985.00;;;;4976906;28;20207;-88
2023/12/27 03:57:03;;;;;;;1.80;1.10;;;12.90;67.70;11.80;96969.00;;;;4977209;28;20247;-88
2023/12/27 03:59:30;;;;;;;3.23;1.20;;;12.90;67.70;11.80;96985.00;;;;4976956;28;20285;-87
2023/12/27 04:01:59;;;;;;;1.73;1.10;;;12.90;67.60;11.80;96984.00;;;;4977339;28;20208;-88
2023/12/27 04:04:28;;;;;;;1.40;1.10;;;12.90;67.60;11.80;96987.00;;;;4977539;28;20262;-88
2023/12/27 04:06:56;;;;;;;1.57;1.10;;;12.90;67.60;11.90;96982.00;;;;4977042;28;20294;-87
2023/12/27 04:09:24;;;;;;;1.97;1.00;;;12.90;67.60;11.90;96978.00;;;;4977305;28;20676;-87
2023/12/27 04:11:52;;;;;;;1.83;1.20;;;12.90;67.60;11.90;96980.00;;;;4977173;28;20246;-87
2023/12/27 04:14:19;;;;;;;4.33;1.67;;;12.90;67.60;11.90;96984.00;;;;4975891;28;20313;-87
2023/12/27 04:16:46;;;;;;;2.50;1.43;;;12.90;67.50;11.90;96978.00;;;;4976353;28;20305;-87
2023/12/27 04:19:14;;;;;;;3.30;1.23;;;12.90;67.50;11.90;96988.00;;;;4973861;28;20234;-87
2023/12/27 04:21:42;;;;;;;1.10;0.87;;;13.00;67.70;11.90;96989.00;;;;4975152;28;20567;-87
2023/12/27 04:24:10;;;;;;;3.30;1.30;;;13.00;67.80;11.90;96974.00;;;;4975526;28;20652;-87
2023/12/27 04:26:39;;;;;;;1.57;1.33;;;13.00;67.90;11.80;96992.00;;;;4975063;28;20279;-87
2023/12/27 04:29:08;;;;;;;1.40;1.10;;;13.00;67.90;11.90;96990.00;;;;4975039;28;20215;-87
2023/12/27 04:31:38;;;;;;;2.03;1.23;;;13.00;67.90;11.80;96999.00;;;;4973832;28;20255;-88
2023/12/27 04:34:05;;;;;;;4.20;1.50;;;13.00;67.90;11.80;96992.00;;;;4976924;28;20655;-87
2023/12/27 04:36:33;;;;;;;1.87;1.33;;;13.00;67.90;11.80;96998.00;;;;4975884;28;20223;-88
2023/12/27 04:39:00;;;;;;;2.87;1.63;;;13.00;67.90;11.80;96996.00;;;;4976686;28;20235;-88
2023/12/27 04:41:28;;;;;;;4.10;1.57;;;13.00;68.00;11.90;97000.00;;;;4976376;28;20207;-87
2023/12/27 04:43:56;;;;;;;3.20;1.50;;;13.00;67.90;11.80;96993.00;;;;4976514;28;20207;-87
2023/12/27 04:46:25;;;;;;;2.23;1.40;;;13.00;67.90;11.80;97000.00;;;;4976069;28;20251;-87
2023/12/27 04:48:53;;;;;;;3.53;1.80;;;13.00;68.10;11.90;97001.00;;;;4976796;28;20263;-87
2023/12/27 04:51:20;;;;;;;1.73;1.30;;;13.00;68.10;11.90;97001.00;;;;4975801;28;20262;-87
2023/12/27 04:53:47;;;;;;;2.30;1.60;;;13.00;68.00;11.80;97000.00;;;;4976042;28;20225;-87
2023/12/27 04:56:17;;;;;;;2.60;1.60;;;13.00;67.80;11.80;96999.00;;;;4976462;28;20269;-87
2023/12/27 04:58:47;;;;;;;1.60;1.30;;;13.00;67.60;11.80;96990.00;;;;4976303;28;20223;-87
2023/12/27 05:01:17;;;;;;;1.67;1.40;;;13.00;67.60;11.80;96993.00;;;;4976130;28;20238;-87
2023/12/27 05:03:45;;;;;;;4.77;1.20;;;12.90;67.60;11.80;96980.00;;;;4975770;28;20699;-88
2023/12/27 05:06:13;;;;;;;1.50;1.40;;;12.90;67.70;11.80;96981.00;;;;4975632;28;20703;-87
2023/12/27 05:08:40;;;;;;;2.43;1.23;;;12.90;67.90;11.80;96982.00;;;;4975829;28;20214;-87
2023/12/27 05:11:13;;;;;;;3.30;1.20;;;12.90;67.90;11.80;96978.00;;;;4974325;28;20262;-87
2023/12/27 05:13:40;;;;;;;2.73;1.20;;;12.90;67.90;11.80;96976.00;;;;4974074;28;20184;-87
2023/12/27 05:16:10;;;;;;;2.53;1.20;;;12.90;68.00;11.80;96975.00;;;;4973312;28;20282;-88
2023/12/27 05:18:41;;;;;;;1.73;1.23;;;12.90;67.90;11.80;96973.00;;;;4973701;28;20199;-87
2023/12/27 05:21:09;;;;;;;3.57;1.70;;;12.90;67.90;11.80;96984.00;;;;4973710;28;20184;-88
2023/12/27 05:23:38;;;;;;;2.17;1.30;;;12.90;67.90;11.80;96973.00;;;;4973579;28;20231;-89
2023/12/27 05:26:06;;;;;;;4.60;1.33;;;12.90;68.10;11.80;96974.00;;;;4973623;28;20278;-88
2023/12/27 05:28:34;;;;;;;1.80;1.57;;;12.90;68.30;11.80;96979.00;;;;4974178;28;20235;-88
2023/12/27 05:31:03;;;;;;;3.00;1.23;;;12.90;68.20;11.70;96967.00;;;;4974773;28;20282;-88
2023/12/27 05:33:33;;;;;;;4.73;1.30;;;12.90;68.10;11.70;96972.00;;;;4975190;28;20239;-88
2023/12/27 05:36:01;;;;;;;1.97;1.13;;;12.90;68.10;11.70;96972.00;;;;4974479;28;20802;-88
2023/12/27 05:38:28;;;;;;;1.20;1.10;;;12.90;68.20;11.70;96969.00;;;;4974267;28;20199;-88
2023/12/27 05:40:56;;;;;;;5.17;1.30;;;12.90;68.20;11.70;96968.00;;;;4975028;28;20641;-88
2023/12/27 05:43:23;;;;;;;1.80;1.10;;;12.90;68.20;11.70;96975.00;;;;4975157;28;20223;-88
2023/12/27 05:45:50;;;;;;;3.33;1.30;;;12.90;68.30;11.80;96969.00;;;;4974082;28;20250;-88
2023/12/27 05:48:21;;;;;;;2.00;1.20;;;12.90;68.50;11.80;96966.00;;;;4974580;28;20537;-89
2023/12/27 05:50:48;;;;;;;2.27;1.30;;;12.90;68.50;11.80;96967.00;;;;4987901;28;20285;-88
2023/12/27 05:53:17;;;;;;;3.27;1.47;;;12.90;68.30;11.80;96970.00;;;;4994178;28;20210;-88
2023/12/27 05:55:44;;;;;;;4.13;1.67;;;12.90;68.40;11.80;96971.00;;;;4994250;28;20214;-88
2023/12/27 05:58:11;;;;;;;2.17;0.90;;;12.90;68.50;11.70;96967.00;;;;4978413;28;20286;-88
2023/12/27 06:00:38;;;;;;;2.07;1.20;;;12.90;68.60;11.80;96975.00;;;;4974704;28;20199;-88
2023/12/27 06:03:06;;;;;;;1.47;1.17;;;12.90;68.60;11.80;96963.00;;;;4974663;28;20235;-88
2023/12/27 06:05:33;;;;;;;2.03;0.90;;;12.90;68.50;11.70;96960.00;;;;4973881;28;20247;-88
2023/12/27 06:08:00;;;;;;;5.73;1.30;;;12.90;68.50;11.70;96968.00;;;;4974029;28;20223;-88
2023/12/27 06:10:28;;;;;;;2.50;1.40;;;12.90;68.60;11.70;96966.00;;;;4973727;28;20255;-88
2023/12/27 06:12:55;;;;;;;1.77;1.57;;;12.90;68.70;11.70;96981.00;;;;4973424;28;20667;-88
2023/12/27 06:15:23;;;;;;;1.93;1.00;;;12.90;68.70;11.70;96979.00;;;;4972467;28;20219;-88
2023/12/27 06:17:50;;;;;;;1.13;0.90;;;12.80;68.60;11.70;96983.00;;;;4973605;28;20685;-89
2023/12/27 06:20:17;;;;;;;2.73;1.30;;;12.80;68.60;11.70;96982.00;;;;4972921;28;20282;-88
2023/12/27 06:22:44;;;;;;;1.53;1.20;;;12.80;68.70;11.70;96976.00;;;;4973174;28;20247;-87
2023/12/27 06:25:11;;;;;;;3.10;1.20;;;12.80;68.70;11.70;96977.00;;;;4973470;28;20844;-88
2023/12/27 06:27:41;;;;;;;3.03;1.10;;;12.80;68.80;11.70;96978.00;;;;4973500;28;20227;-89
2023/12/27 06:30:09;;;;;;;2.97;1.10;;;12.80;68.60;11.70;96985.00;;;;4974211;28;20191;-88
2023/12/27 06:32:36;;;;;;;3.03;1.37;;;12.80;68.60;11.70;96976.00;;;;4974232;28;20203;-88
2023/12/27 06:35:04;;;;;;;2.10;1.47;;;12.90;68.70;11.70;96978.00;;;;4974104;28;20246;-88
2023/12/27 06:37:31;;;;;;;4.27;1.50;;;12.80;68.70;11.60;96985.00;;;;4974184;28;20629;-88
2023/12/27 06:39:58;;;;;;;3.53;1.30;;;12.80;68.70;11.60;96976.00;;;;4973826;28;20601;-89
2023/12/27 06:42:25;;;;;;;1.27;1.17;;;12.70;68.50;11.60;96980.00;;;;4973785;28;20290;-89
2023/12/27 06:44:54;;;;;;;2.10;1.20;;;12.70;68.50;11.50;96976.00;;;;4974254;28;20245;-89
2023/12/27 06:47:21;;;;;;;1.20;1.10;;;12.70;68.50;11.50;96974.00;;;;4974318;28;20497;-88
2023/12/27 06:49:48;;;;;;;2.80;1.30;;;12.70;68.50;11.50;96965.00;;;;4975693;28;20654;-88
2023/12/27 06:52:15;;;;;;;6.37;1.97;;;12.60;68.50;11.50;96974.00;;;;4978139;28;20259;-88
2023/12/27 06:54:42;;;;;;;1.93;1.10;;;12.60;68.50;11.40;96972.00;;;;4978030;28;20246;-87
2023/12/27 06:57:10;;;;;;;1.33;1.13;;;12.60;68.50;11.40;96969.00;;;;4977892;28;20230;-87
2023/12/27 06:59:37;;;;;;;3.83;1.30;;;12.50;68.50;11.30;96968.00;;;;4977479;28;20254;-87
2023/12/27 07:02:07;;;;;;;1.30;1.20;;;12.50;68.40;11.30;96973.00;;;;4977792;28;20235;-87
2023/12/27 07:04:37;;;;;;;2.00;1.40;;;12.40;68.20;11.20;96969.00;;;;4981204;28;20202;-88
2023/12/27 07:07:04;;;;;;;1.97;1.23;;;12.40;68.20;11.10;96963.00;;;;4996113;28;20242;-87
2023/12/27 07:09:31;;;;;;;4.23;1.60;;;12.30;68.30;11.10;96965.00;;;;4996808;28;20202;-87
2023/12/27 07:11:59;;;;;;;2.13;1.33;;;12.30;68.40;11.00;96960.00;;;;4996797;28;20241;-88
2023/12/27 07:14:26;;;;;;;2.67;1.10;;;12.20;68.50;10.90;96955.00;;;;4995777;28;20230;-87
2023/12/27 07:16:53;;;;;;;2.57;1.50;;;12.20;68.60;10.90;96966.00;;;;4981571;28;20258;-87
2023/12/27 07:19:22;;;;;;;2.53;1.30;;;12.10;69.40;10.80;96960.00;;;;4976297;28;20238;-87
2023/12/27 07:21:49;;;;;;;1.77;1.13;;;12.10;68.80;10.80;96969.00;;;;4990168;28;20713;-89
2023/12/27 07:24:16;;;;;;;2.07;1.10;;;12.00;68.70;10.80;96969.00;;;;4997287;28;20264;-87
2023/12/27 07:26:43;;;;;;;2.80;1.07;;;12.00;68.90;10.70;96971.00;;;;4997100;28;20215;-88
2023/12/27 07:29:11;;;;;;;3.43;1.40;;;11.90;68.90;10.70;96977.00;;;;4996974;28;20237;-87
2023/12/27 07:31:38;;;;;;;2.83;1.37;;;11.90;69.10;10.60;96980.00;;;;4996646;28;20230;-88
2023/12/27 07:34:05;;;;;;;1.80;1.10;;;11.80;69.20;10.60;96987.00;;;;4997093;28;20271;-89
2023/12/27 07:36:33;;;;;;;1.00;0.90;;;11.80;69.40;10.60;96985.00;;;;4996291;28;20226;-87
2023/12/27 07:39:01;;;;;;;1.73;1.27;;;11.80;69.60;10.60;96981.00;;;;4996840;28;20194;-88
2023/12/27 07:41:28;;;;;;;2.87;1.23;;;11.80;69.80;10.60;96987.00;;;;4996581;28;20209;-88
2023/12/27 07:43:55;;;;;;;2.80;1.10;;;11.80;69.90;10.60;96984.00;;;;4996734;28;20222;-86
2023/12/27 07:46:22;;;;;;;2.93;1.10;;;11.80;70.00;10.60;96974.00;;;;4997189;28;20637;-87
2023/12/27 07:48:49;;;;;;;2.97;1.23;;;11.80;70.10;10.60;96986.00;;;;4987466;28;20199;-82
2023/12/27 07:51:16;;;;;;;1.50;1.30;;;11.80;70.20;10.60;96988.00;;;;4985358;28;20250;-83
2023/12/27 07:53:50;;;;;;;3.27;1.33;;;11.80;70.30;10.60;96985.00;;;;4983507;28;20559;-84
2023/12/27 07:56:18;;;;;;;2.50;1.20;;;11.80;70.40;10.70;96982.00;;;;4983276;28;20226;-83
2023/12/27 07:58:45;;;;;;;1.30;1.20;;;11.90;70.40;10.70;96983.00;;;;4973889;28;20278;-83
2023/12/27 08:01:12;;;;;;;2.60;1.20;;;11.90;70.20;10.70;96982.00;;;;4982633;28;20295;-84
2023/12/27 08:03:39;;;;;;;3.43;1.70;;;11.90;70.10;10.70;96980.00;;;;4989288;28;20277;-86
2023/12/27 08:06:08;;;;;;;2.17;1.40;;;12.00;70.00;10.70;96981.00;;;;4981848;28;20306;-85
2023/12/27 08:08:36;;;;;;;2.90;1.43;;;12.00;70.10;10.80;96987.00;;;;4980545;28;20203;-85
2023/12/27 08:11:05;;;;;;;2.47;1.53;;;12.00;70.10;10.80;96989.00;;;;4988546;28;20316;-84
2023/12/27 08:13:34;;;;;;;1.53;1.17;;;12.00;70.10;10.80;96987.00;;;;4974055;28;20290;-84
2023/12/27 08:16:01;;;;;;;1.37;1.27;;;12.00;70.10;10.80;96997.00;;;;4987714;28;20663;-86
2023/12/27 08:18:29;;;;;;;2.80;1.43;;;12.00;70.00;10.80;96996.00;;;;4978069;28;20230;-86
2023/12/27 08:20:57;;;;;;;3.57;1.50;;;12.00;70.10;10.80;96996.00;;;;4994609;28;20294;-86
2023/12/27 08:23:24;;;;;;;2.03;1.47;;;12.00;70.20;10.80;96990.00;;;;4976308;28;20199;-87
2023/12/27 08:25:52;;;;;;;2.47;1.80;;;12.00;70.20;10.80;96999.00;;;;4989074;28;20250;-87
2023/12/27 08:28:20;;;;;;;3.00;1.50;;;12.00;70.30;10.80;97001.00;;;;4981653;28;20207;-86
2023/12/27 08:30:47;;;;;;;2.80;1.30;;;12.00;70.40;10.80;96999.00;;;;4979471;28;20234;-86
2023/12/27 08:33:15;;;;;;;2.10;1.60;;;12.10;70.50;10.90;97011.00;;;;4977955;28;20790;-85
2023/12/27 08:35:42;;;;;;;4.20;1.90;;;12.10;70.60;10.90;96999.00;;;;4989646;28;20223;-85
2023/12/27 08:38:10;;;;;;;1.53;1.43;;;12.10;70.60;10.90;97004.00;;;;4982170;28;20648;-86
2023/12/27 08:40:37;;;;;;;2.57;1.80;;;12.10;70.50;10.90;97008.00;;;;4973134;28;20322;-84
2023/12/27 08:43:04;;;;;;;1.50;1.40;;;12.10;70.30;10.90;97010.00;;;;4984550;28;20231;-86
2023/12/27 08:45:33;;;;;;;2.40;1.50;;;12.20;70.10;10.90;97017.00;;;;4972774;28;20242;-84
2023/12/27 08:48:00;;;;;;;2.13;1.67;;;12.20;69.80;10.90;97027.00;;;;4977618;28;20605;-84
2023/12/27 08:50:27;;;;;;;2.60;2.30;;;12.20;69.70;11.00;97022.00;;;;4982474;28;20236;-84
2023/12/27 08:52:54;;;;;;;2.37;1.97;;;12.20;69.70;11.00;97015.00;;;;4987916;28;20253;-84
2023/12/27 08:55:21;;;;;;;1.70;1.60;;;12.20;69.60;11.00;97020.00;;;;4975030;28;20746;-84
2023/12/27 08:57:48;;;;;;;2.30;1.30;;;12.20;69.40;11.00;97022.00;;;;4979486;28;20301;-81
2023/12/27 09:00:21;;;;;;;2.40;1.37;;;12.30;69.40;11.00;97026.00;;;;4976523;28;20286;-83
2023/12/27 09:02:50;;;;;;;1.33;1.23;;;12.30;69.20;11.10;97029.00;;;;4978745;28;20465;-82
2023/12/27 09:05:17;;;;;;;1.40;1.20;;;12.30;69.20;11.20;97034.00;;;;4974185;28;20227;-83
2023/12/27 09:07:44;;;;;;;1.40;1.30;;;12.40;69.40;11.20;97025.00;;;;4984587;28;20861;-82
2023/12/27 09:10:12;;;;;;;2.43;1.13;;;12.40;69.40;11.30;97013.00;;;;4983746;28;20241;-83
2023/12/27 09:12:45;;;;;;;1.93;1.70;;;12.50;69.60;11.40;97024.00;;;;4979578;28;20739;-82
2023/12/27 09:15:14;;;;;;;2.60;1.53;;;12.60;69.70;11.50;97019.00;;;;4983286;28;20702;-83
2023/12/27 09:17:41;;;;;;;2.07;1.70;;;12.60;69.80;11.60;97013.00;;;;4982108;28;20203;-84
2023/12/27 09:20:11;;;;;;;1.37;1.27;;;12.70;69.60;11.70;97022.00;;;;4982618;28;20196;-85
2023/12/27 09:22:38;;;;;;;2.43;1.70;;;12.80;69.50;11.70;97008.00;;;;4982013;28;20214;-84
2023/12/27 09:25:06;;;;;;;4.13;1.63;;;12.90;69.50;11.80;97008.00;;;;4980879;28;20247;-83
2023/12/27 09:27:33;;;;;;;2.17;1.43;;;12.90;69.40;11.90;97014.00;;;;4982755;28;20203;-83
2023/12/27 09:30:00;;;;;;;1.60;1.50;;;13.00;69.20;11.90;97009.00;;;;4988776;28;20260;-82
2023/12/27 09:32:27;;;;;;;3.97;2.20;;;13.10;69.00;11.90;97010.00;;;;4986822;28;20313;-82
2023/12/27 09:35:01;;;;;;;3.30;2.80;;;13.10;68.80;12.00;97015.00;;;;4987541;28;20281;-82
2023/12/27 09:37:43;;;;;;;1.63;1.53;;;13.10;68.40;12.00;97007.00;;;;4984762;28;20209;-83
2023/12/27 09:40:12;;;;;;;2.40;2.00;;;13.20;68.40;12.00;96997.00;;;;4977715;28;20199;-84
2023/12/27 09:42:41;;;;;;;3.67;2.87;;;13.20;68.70;12.10;96999.00;;;;4980109;28;20191;-85
2023/12/27 09:45:16;;;;;;;3.90;2.33;;;13.30;68.80;12.20;96999.00;;;;4988100;28;20230;-87
2023/12/27 09:47:47;;;;;;;2.50;1.60;;;13.30;70.00;12.30;96998.00;;;;4981603;28;20202;-85
2023/12/27 09:50:17;;;;;;;4.97;2.07;;;13.50;69.80;12.50;96989.00;;;;4978464;28;20222;-84
2023/12/27 09:52:49;;;;;;;4.03;3.10;;;13.60;70.20;12.70;96993.00;;;;4976193;28;20294;-85
2023/12/27 09:55:19;;;;;;;4.47;2.13;;;13.70;70.40;12.90;96993.00;;;;4973203;28;20231;-84
2023/12/27 09:57:50;;;;;;;2.37;2.10;;;14.00;70.60;13.20;96987.00;;;;4983692;28;20202;-85
2023/12/27 10:00:21;;;;;;;2.03;1.80;;;14.20;70.80;13.40;96985.00;;;;4973997;28;20290;-84
2023/12/27 10:02:51;;;;;;;5.93;2.20;;;14.50;70.40;13.60;96978.00;;;;4985671;28;20284;-84
2023/12/27 10:05:48;;;;;;;4.17;2.90;;;14.70;70.00;13.90;96967.00;;;;4977679;28;20313;-85
2023/12/27 10:08:24;;;;;;;2.23;1.80;;;15.00;68.40;14.10;96977.00;;;;4980206;28;20617;-85
2023/12/27 10:10:52;;;;;;;1.50;1.40;;;15.20;69.20;14.30;96973.00;;;;4984589;28;20198;-85
2023/12/27 10:13:22;;;;;;;1.67;1.30;;;15.40;69.30;14.50;96974.00;;;;4982688;28;20222;-85
2023/12/27 10:15:49;;;;;;;2.27;1.53;;;15.60;68.70;14.70;96972.00;;;;4972748;28;20650;-84
2023/12/27 10:18:16;;;;;;;2.50;2.20;;;15.70;68.20;14.90;96957.00;;;;4981172;28;20200;-84
2023/12/27 10:20:46;;;;;;;1.73;1.40;;;15.90;67.70;15.00;96962.00;;;;4978650;28;20363;-84
2023/12/27 10:23:13;;;;;;;1.30;1.20;;;16.10;67.20;15.20;96963.00;;;;4975173;28;20683;-84
2023/12/27 10:25:43;;;;;;;2.63;1.50;;;16.20;66.70;15.20;96958.00;;;;4974454;28;20246;-84
2023/12/27 10:28:10;;;;;;;3.50;2.20;;;16.30;66.00;15.30;96960.00;;;;4977444;28;20207;-85
2023/12/27 10:30:38;;;;;;;2.33;1.80;;;16.40;65.90;15.30;96958.00;;;;4974787;28;20265;-84
2023/12/27 10:33:05;;;;;;;2.30;2.10;;;16.40;65.40;15.40;96950.00;;;;4975066;28;20255;-82
2023/12/27 10:35:35;;;;;;;1.50;1.40;;;16.50;65.00;15.40;96932.00;;;;4989348;28;20319;-83
2023/12/27 10:38:04;;;;;;;1.90;1.60;;;16.50;64.70;15.40;96923.00;;;;4982019;28;20667;-83
2023/12/27 10:40:32;;;;;;;1.10;1.00;;;16.50;64.40;15.40;96917.00;;;;4983967;28;20209;-83
2023/12/27 10:43:00;;;;;;;2.57;1.60;;;16.50;64.00;15.30;96911.00;;;;4984427;28;20199;-83
2023/12/27 10:45:27;;;;;;;2.00;1.57;;;16.40;63.20;15.20;96915.00;;;;4976026;28;20648;-84
2023/12/27 10:47:59;;;;;;;1.70;1.50;;;16.40;62.90;15.00;96900.00;;;;4979521;28;20227;-85
2023/12/27 10:50:29;;;;;;;1.63;1.53;;;16.30;62.00;14.90;96888.00;;;;4978805;28;20199;-85
2023/12/27 10:53:03;;;;;;;2.47;1.60;;;16.10;62.20;14.70;96887.00;;;;4980274;28;20256;-85
2023/12/27 10:55:32;;;;;;;1.57;1.47;;;16.00;62.00;14.60;96875.00;;;;4984518;28;20222;-85
2023/12/27 10:58:02;;;;;;;2.00;1.80;;;15.90;62.50;14.50;96880.00;;;;4980925;28;20577;-85
2023/12/27 11:00:31;;;;;;;3.10;2.20;;;15.80;62.60;14.40;96879.00;;;;4982922;28;20202;-85